createdAt,value
2019-01-28T00:00:28.348Z,13.6
2019-01-28T00:01:29.872Z,13.7
2019-01-28T00:02:31.321Z,13.6
2019-01-28T00:03:35.507Z,13.5
2019-01-28T00:04:36.964Z,13.5
2019-01-28T00:05:38.437Z,13.5
2019-01-28T00:06:39.920Z,13.3
2019-01-28T00:07:41.406Z,13.2
2019-01-28T00:08:42.874Z,13.3
2019-01-28T00:09:44.328Z,13.2
2019-01-28T00:10:45.868Z,13
2019-01-28T00:11:47.344Z,13
2019-01-28T00:12:48.808Z,13.1
2019-01-28T00:13:51.512Z,13
2019-01-28T00:14:53.000Z,12.9
2019-01-28T00:15:56.280Z,12.8
2019-01-28T00:16:57.748Z,12.7
2019-01-28T00:17:59.252Z,12.7
2019-01-28T00:19:02.106Z,12.7
2019-01-28T00:20:03.604Z,12.6
2019-01-28T00:21:05.402Z,12.6
2019-01-28T00:22:06.882Z,12.6
2019-01-28T00:23:08.360Z,12.6
2019-01-28T00:24:09.833Z,12.6
2019-01-28T00:25:11.309Z,12.2
2019-01-28T00:26:13.178Z,12.2
2019-01-28T00:27:14.705Z,12.3
2019-01-28T00:28:16.326Z,12.4
2019-01-28T00:29:17.794Z,12.3
2019-01-28T00:30:19.669Z,12.3
2019-01-28T00:31:21.405Z,12.3
2019-01-28T00:32:22.960Z,12.3
2019-01-28T00:33:24.418Z,12.2
2019-01-28T00:34:25.933Z,12.3
2019-01-28T00:35:28.611Z,12.2
2019-01-28T00:36:30.403Z,12.2
2019-01-28T00:37:32.256Z,12.2
2019-01-28T00:38:33.767Z,12
2019-01-28T00:39:37.662Z,11.9
2019-01-28T00:40:39.105Z,12.1
2019-01-28T00:41:40.870Z,12.1
2019-01-28T00:42:42.342Z,11.9
2019-01-28T00:43:43.919Z,12
2019-01-28T00:44:46.499Z,11.9
2019-01-28T00:45:49.198Z,12
2019-01-28T00:46:50.887Z,11.9
2019-01-28T00:47:52.357Z,11.8
2019-01-28T00:48:53.849Z,11.7
2019-01-28T00:49:55.877Z,11.6
2019-01-28T00:50:59.837Z,11.7
2019-01-28T00:52:01.393Z,11.7
2019-01-28T00:53:07.277Z,11.9
2019-01-28T00:54:09.456Z,11.8
2019-01-28T00:55:11.477Z,11.8
2019-01-28T00:56:15.153Z,11.7
2019-01-28T00:57:16.697Z,11.6
2019-01-28T00:58:18.163Z,11.6
2019-01-28T00:59:19.609Z,11.6
2019-01-28T01:00:24.105Z,11.7
2019-01-28T01:01:26.711Z,11.7
2019-01-28T01:02:28.529Z,11.6
2019-01-28T01:03:30.185Z,11.6
2019-01-28T01:04:32.179Z,11.6
2019-01-28T01:05:33.676Z,11.6
2019-01-28T01:06:35.173Z,11.6
2019-01-28T01:07:36.729Z,11.5
2019-01-28T01:08:38.482Z,11.5
2019-01-28T01:09:40.002Z,11.6
2019-01-28T01:10:41.555Z,11.6
2019-01-28T01:11:45.295Z,11.6
2019-01-28T01:12:47.575Z,11.3
2019-01-28T01:13:50.479Z,11.1
2019-01-28T01:14:52.385Z,11.1
2019-01-28T01:15:53.874Z,11.3
2019-01-28T01:16:55.309Z,11.4
2019-01-28T01:17:59.853Z,11.4
2019-01-28T01:19:03.149Z,11.4
2019-01-28T01:20:04.587Z,11.3
2019-01-28T01:21:06.077Z,11.4
2019-01-28T01:22:08.569Z,11.2
2019-01-28T01:23:10.601Z,11.2
2019-01-28T01:24:12.076Z,11.3
2019-01-28T01:25:15.513Z,11.2
2019-01-28T01:26:16.993Z,11.1
2019-01-28T01:27:18.436Z,11.2
2019-01-28T01:28:22.146Z,11.1
2019-01-28T01:29:23.635Z,11.1
2019-01-28T01:30:27.190Z,11
2019-01-28T01:31:31.708Z,11
2019-01-28T01:32:33.397Z,11.1
2019-01-28T01:33:37.974Z,11.3
2019-01-28T01:34:39.703Z,11.4
2019-01-28T01:35:41.376Z,11.3
2019-01-28T01:36:42.863Z,11.3
2019-01-28T01:37:44.312Z,11.1
2019-01-28T01:38:45.831Z,11.2
2019-01-28T01:39:47.287Z,10.9
2019-01-28T01:40:48.770Z,11.1
2019-01-28T01:41:50.458Z,11.1
2019-01-28T01:42:53.032Z,11.1
2019-01-28T01:43:54.781Z,11.1
2019-01-28T01:44:58.698Z,11.1
2019-01-28T01:46:00.184Z,11.2
2019-01-28T01:47:03.199Z,11.2
2019-01-28T01:48:04.659Z,11.1
2019-01-28T01:49:06.416Z,11.1
2019-01-28T01:50:07.874Z,11
2019-01-28T01:51:09.334Z,11.2
2019-01-28T01:52:10.810Z,11
2019-01-28T01:53:12.314Z,10.9
2019-01-28T01:54:13.789Z,11
2019-01-28T01:55:15.276Z,11.1
2019-01-28T01:56:16.782Z,11.1
2019-01-28T01:57:19.437Z,11.1
2019-01-28T01:58:20.946Z,11.1
2019-01-28T01:59:22.482Z,10.9
2019-01-28T02:00:24.937Z,10.8
2019-01-28T02:01:26.736Z,10.7
2019-01-28T02:02:33.285Z,10.7
2019-01-28T02:03:35.014Z,10.7
2019-01-28T02:04:36.562Z,10.7
2019-01-28T02:05:38.914Z,10.6
2019-01-28T02:06:40.401Z,10.6
2019-01-28T02:07:42.156Z,10.6
2019-01-28T02:08:44.670Z,10.7
2019-01-28T02:09:46.134Z,10.8
2019-01-28T02:10:47.662Z,10.7
2019-01-28T02:11:49.099Z,10.6
2019-01-28T02:12:50.551Z,10.7
2019-01-28T02:13:52.022Z,10.5
2019-01-28T02:14:53.520Z,10.6
2019-01-28T02:15:55.354Z,10.6
2019-01-28T02:16:59.784Z,10.4
2019-01-28T02:18:01.280Z,10.3
2019-01-28T02:19:02.860Z,10.2
2019-01-28T02:20:04.652Z,10.1
2019-01-28T02:21:06.096Z,10.3
2019-01-28T02:22:07.605Z,10.3
2019-01-28T02:23:10.540Z,10.3
2019-01-28T02:24:12.005Z,10.2
2019-01-28T02:25:13.484Z,10.2
2019-01-28T02:26:15.661Z,10.4
2019-01-28T02:27:17.147Z,10.4
2019-01-28T02:28:18.636Z,10.4
2019-01-28T02:29:20.116Z,10.2
2019-01-28T02:30:21.629Z,10.3
2019-01-28T02:31:23.125Z,10.2
2019-01-28T02:32:24.645Z,10.3
2019-01-28T02:33:26.124Z,10.3
2019-01-28T02:34:27.568Z,10
2019-01-28T02:35:29.113Z,10.1
2019-01-28T02:36:30.612Z,10.2
2019-01-28T02:37:32.072Z,10.1
2019-01-28T02:38:33.748Z,10.1
2019-01-28T02:39:35.266Z,10.4
2019-01-28T02:40:36.893Z,10.4
2019-01-28T02:41:38.365Z,10.3
2019-01-28T02:42:39.850Z,10.2
2019-01-28T02:43:41.321Z,10.1
2019-01-28T02:44:42.789Z,10
2019-01-28T02:45:44.298Z,10.2
2019-01-28T02:46:45.805Z,10.2
2019-01-28T02:47:47.533Z,10.2
2019-01-28T02:48:48.987Z,10.3
2019-01-28T02:49:50.401Z,10.3
2019-01-28T02:50:51.911Z,10.4
2019-01-28T02:51:53.359Z,10.2
2019-01-28T02:52:54.837Z,10.4
2019-01-28T02:53:56.295Z,10.4
2019-01-28T02:54:57.764Z,10.3
2019-01-28T02:55:59.326Z,10.3
2019-01-28T02:57:00.775Z,10.3
2019-01-28T02:58:10.201Z,10
2019-01-28T02:59:11.742Z,10.1
2019-01-28T03:00:13.301Z,10.2
2019-01-28T03:01:15.383Z,10.2
2019-01-28T03:02:16.915Z,10.3
2019-01-28T03:03:18.661Z,10.3
2019-01-28T03:04:20.186Z,10.2
2019-01-28T03:05:21.727Z,10.3
2019-01-28T03:06:23.317Z,10.3
2019-01-28T03:07:24.853Z,10.2
2019-01-28T03:08:26.874Z,10.3
2019-01-28T03:09:28.383Z,10.1
2019-01-28T03:10:29.992Z,10.1
2019-01-28T03:11:31.587Z,10.1
2019-01-28T03:12:33.091Z,10.1
2019-01-28T03:13:34.654Z,10.2
2019-01-28T03:14:36.205Z,10.1
2019-01-28T03:15:37.740Z,10
2019-01-28T03:16:39.303Z,10.1
2019-01-28T03:17:40.789Z,10.1
2019-01-28T03:18:42.291Z,10.2
2019-01-28T03:19:44.266Z,10.1
2019-01-28T03:20:45.910Z,10.1
2019-01-28T03:21:47.877Z,10.2
2019-01-28T03:22:49.542Z,10.3
2019-01-28T03:23:51.146Z,10.2
2019-01-28T03:24:52.741Z,10.2
2019-01-28T03:25:54.309Z,10.1
2019-01-28T03:26:55.861Z,10.1
2019-01-28T03:27:57.381Z,10
2019-01-28T03:28:58.985Z,10.1
2019-01-28T03:30:00.526Z,10
2019-01-28T03:31:02.310Z,10
2019-01-28T03:32:03.877Z,10.1
2019-01-28T03:33:05.464Z,10.2
2019-01-28T03:34:07.059Z,10.1
2019-01-28T03:35:08.663Z,10.1
2019-01-28T03:36:10.205Z,9.9
2019-01-28T03:37:12.407Z,10
2019-01-28T03:38:13.965Z,9.9
2019-01-28T03:39:15.457Z,10
2019-01-28T03:40:18.086Z,10
2019-01-28T03:41:19.714Z,9.9
2019-01-28T03:42:21.315Z,9.9
2019-01-28T03:43:22.877Z,10
2019-01-28T03:44:24.475Z,10
2019-01-28T03:45:26.065Z,10
2019-01-28T03:46:27.602Z,9.9
2019-01-28T03:47:29.170Z,9.7
2019-01-28T03:48:30.748Z,9.9
2019-01-28T03:49:32.367Z,9.9
2019-01-28T03:50:34.093Z,9.9
2019-01-28T03:51:36.068Z,9.9
2019-01-28T03:52:37.793Z,9.9
2019-01-28T03:53:39.322Z,10
2019-01-28T03:54:40.838Z,10
2019-01-28T03:55:42.437Z,10.1
2019-01-28T03:56:43.940Z,10
2019-01-28T03:57:46.585Z,10
2019-01-28T03:58:48.324Z,9.9
2019-01-28T03:59:49.890Z,9.9
2019-01-28T04:00:51.433Z,9.7
2019-01-28T04:01:53.314Z,9.6
2019-01-28T04:02:55.100Z,9.6
2019-01-28T04:03:56.716Z,9.8
2019-01-28T04:04:58.278Z,9.8
2019-01-28T04:05:59.902Z,9.9
2019-01-28T04:07:01.489Z,9.9
2019-01-28T04:08:03.140Z,9.7
2019-01-28T04:09:04.789Z,9.7
2019-01-28T04:10:06.350Z,9.8
2019-01-28T04:11:07.858Z,9.7
2019-01-28T04:12:09.348Z,9.7
2019-01-28T04:13:11.000Z,9.8
2019-01-28T04:14:13.681Z,9.7
2019-01-28T04:15:15.453Z,9.9
2019-01-28T04:16:16.983Z,9.8
2019-01-28T04:17:18.506Z,9.7
2019-01-28T04:18:20.148Z,9.7
2019-01-28T04:19:21.838Z,9.7
2019-01-28T04:20:23.404Z,9.6
2019-01-28T04:21:24.952Z,9.7
2019-01-28T04:22:26.467Z,9.6
2019-01-28T04:23:28.312Z,9.6
2019-01-28T04:24:29.897Z,10
2019-01-28T04:25:31.414Z,10.1
2019-01-28T04:26:32.988Z,9.9
2019-01-28T04:27:34.472Z,9.6
2019-01-28T04:28:36.046Z,9.7
2019-01-28T04:29:37.562Z,9.8
2019-01-28T04:30:39.189Z,9.7
2019-01-28T04:31:40.746Z,9.6
2019-01-28T04:32:42.292Z,9.7
2019-01-28T04:33:43.956Z,9.8
2019-01-28T04:34:45.499Z,9.8
2019-01-28T04:35:47.044Z,9.9
2019-01-28T04:36:49.836Z,10
2019-01-28T04:37:52.461Z,10
2019-01-28T04:38:56.145Z,9.9
2019-01-28T04:39:57.870Z,10.1
2019-01-28T04:40:59.406Z,10.1
2019-01-28T04:42:00.887Z,9.9
2019-01-28T04:43:02.417Z,9.9
2019-01-28T04:44:04.132Z,9.9
2019-01-28T04:45:05.718Z,9.9
2019-01-28T04:46:07.401Z,9.8
2019-01-28T04:47:08.957Z,9.8
2019-01-28T04:48:10.471Z,9.5
2019-01-28T04:49:12.096Z,9.6
2019-01-28T04:50:13.685Z,9.6
2019-01-28T04:51:15.231Z,9.6
2019-01-28T04:52:16.950Z,9.6
2019-01-28T04:53:18.581Z,9.9
2019-01-28T04:54:20.355Z,9.9
2019-01-28T04:55:22.282Z,9.7
2019-01-28T04:56:23.888Z,9.5
2019-01-28T04:57:25.572Z,9.7
2019-01-28T04:58:27.119Z,9.7
2019-01-28T04:59:28.811Z,9.8
2019-01-28T05:00:30.321Z,9.8
2019-01-28T05:01:34.351Z,9.9
2019-01-28T05:02:38.795Z,9.8
2019-01-28T05:03:40.699Z,9.7
2019-01-28T05:04:42.748Z,9.8
2019-01-28T05:05:44.289Z,9.7
2019-01-28T05:06:45.837Z,9.7
2019-01-28T05:07:47.461Z,9.6
2019-01-28T05:08:49.001Z,9.5
2019-01-28T05:09:50.602Z,9.6
2019-01-28T05:10:52.198Z,9.6
2019-01-28T05:11:53.865Z,9.6
2019-01-28T05:12:55.415Z,9.8
2019-01-28T05:13:57.043Z,9.8
2019-01-28T05:14:58.635Z,9.7
2019-01-28T05:16:00.215Z,9.7
2019-01-28T05:17:01.777Z,9.7
2019-01-28T05:18:03.291Z,9.7
2019-01-28T05:19:05.175Z,9.6
2019-01-28T05:20:06.754Z,9.5
2019-01-28T05:21:08.384Z,9.5
2019-01-28T05:22:12.311Z,9.6
2019-01-28T05:23:13.816Z,9.6
2019-01-28T05:24:15.648Z,9.4
2019-01-28T05:25:17.668Z,9.5
2019-01-28T05:26:19.217Z,9.6
2019-01-28T05:27:20.739Z,9.6
2019-01-28T05:28:22.281Z,9.7
2019-01-28T05:29:23.846Z,9.6
2019-01-28T05:30:25.435Z,9.6
2019-01-28T05:31:27.016Z,9.5
2019-01-28T05:32:28.545Z,9.4
2019-01-28T05:33:30.072Z,9.5
2019-01-28T05:34:31.589Z,9.7
2019-01-28T05:35:33.151Z,9.7
2019-01-28T05:36:34.745Z,9.7
2019-01-28T05:37:36.489Z,9.6
2019-01-28T05:38:38.964Z,9.5
2019-01-28T05:39:40.665Z,9.5
2019-01-28T05:40:42.490Z,9.5
2019-01-28T05:41:44.055Z,9.5
2019-01-28T05:42:45.637Z,9.4
2019-01-28T05:43:47.164Z,9.6
2019-01-28T05:44:50.117Z,9.5
2019-01-28T05:45:52.154Z,9.5
2019-01-28T05:46:53.687Z,9.3
2019-01-28T05:47:55.194Z,9.3
2019-01-28T05:48:56.743Z,9.3
2019-01-28T05:49:58.382Z,9.3
2019-01-28T05:51:00.033Z,9.4
2019-01-28T05:52:01.966Z,9.4
2019-01-28T05:53:03.571Z,9.3
2019-01-28T05:54:05.148Z,9.2
2019-01-28T05:55:06.839Z,9.2
2019-01-28T05:56:09.808Z,9.2
2019-01-28T05:57:11.351Z,9.2
2019-01-28T05:58:12.871Z,9.4
2019-01-28T05:59:15.423Z,9.3
2019-01-28T06:00:16.940Z,9.1
2019-01-28T06:01:18.511Z,9.2
2019-01-28T06:02:22.200Z,9.2
2019-01-28T06:03:23.774Z,9.3
2019-01-28T06:04:25.317Z,9.3
2019-01-28T06:05:26.878Z,9.3
2019-01-28T06:06:28.505Z,9.3
2019-01-28T06:07:30.022Z,9.4
2019-01-28T06:08:31.997Z,9.4
2019-01-28T06:09:33.551Z,9.5
2019-01-28T06:10:35.088Z,9.4
2019-01-28T06:11:39.128Z,9.4
2019-01-28T06:12:40.778Z,9.3
2019-01-28T06:13:42.398Z,9.3
2019-01-28T06:14:43.988Z,9.3
2019-01-28T06:15:45.507Z,9.3
2019-01-28T06:16:47.226Z,9.3
2019-01-28T06:17:48.825Z,9.3
2019-01-28T06:18:50.435Z,9.4
2019-01-28T06:19:52.130Z,9.3
2019-01-28T06:20:53.758Z,9.4
2019-01-28T06:21:55.379Z,9.4
2019-01-28T06:22:57.137Z,9.4
2019-01-28T06:23:58.748Z,9.5
2019-01-28T06:25:00.324Z,9.3
2019-01-28T06:26:01.860Z,9.3
2019-01-28T06:27:03.939Z,9.3
2019-01-28T06:28:05.550Z,9.3
2019-01-28T06:29:07.068Z,9.3
2019-01-28T06:30:08.594Z,9.3
2019-01-28T06:31:10.174Z,9.4
2019-01-28T06:32:12.208Z,9.3
2019-01-28T06:33:13.850Z,9.4
2019-01-28T06:34:15.438Z,9.3
2019-01-28T06:35:17.426Z,9.4
2019-01-28T06:36:19.088Z,9.4
2019-01-28T06:37:20.772Z,9.4
2019-01-28T06:38:22.281Z,9.3
2019-01-28T06:39:27.501Z,9.4
2019-01-28T06:40:29.061Z,9.3
2019-01-28T06:41:31.671Z,9.2
2019-01-28T06:42:33.387Z,9.6
2019-01-28T06:43:34.987Z,10.3
2019-01-28T06:44:36.725Z,11.1
2019-01-28T06:45:40.864Z,11.7
2019-01-28T06:46:42.583Z,12.2
2019-01-28T06:47:46.766Z,12.3
2019-01-28T06:48:48.777Z,12.5
2019-01-28T06:49:50.349Z,12.8
2019-01-28T06:50:51.917Z,13.1
2019-01-28T06:51:54.058Z,13.3
2019-01-28T06:52:55.727Z,13.3
2019-01-28T06:55:37.311Z,13.8
2019-01-28T06:57:00.265Z,14
2019-01-28T06:58:42.905Z,14.1
2019-01-28T06:59:45.579Z,14.1
2019-01-28T07:00:47.079Z,14.2
2019-01-28T07:01:50.185Z,14.5
2019-01-28T07:02:52.036Z,14.9
2019-01-28T07:03:53.649Z,15.2
2019-01-28T07:05:02.269Z,15.3
2019-01-28T07:06:03.726Z,15.4
2019-01-28T07:07:05.263Z,15.6
2019-01-28T07:08:06.718Z,15.6
2019-01-28T07:09:08.301Z,15.7
2019-01-28T07:10:09.897Z,15.8
2019-01-28T07:11:11.452Z,15.8
2019-01-28T07:12:12.915Z,15.9
2019-01-28T07:13:14.429Z,16.1
2019-01-28T07:14:18.422Z,16.4
2019-01-28T07:15:19.985Z,16.4
2019-01-28T07:16:21.509Z,16.5
2019-01-28T07:17:23.307Z,16.7
2019-01-28T07:18:24.916Z,16.4
2019-01-28T07:19:28.917Z,16.3
2019-01-28T07:20:32.085Z,16.3
2019-01-28T07:21:33.673Z,16.2
2019-01-28T07:22:35.281Z,16.1
2019-01-28T07:23:36.807Z,16
2019-01-28T07:24:38.709Z,16
2019-01-28T07:25:40.163Z,15.9
2019-01-28T07:26:44.615Z,15.8
2019-01-28T07:27:46.481Z,15.8
2019-01-28T07:28:48.108Z,16
2019-01-28T07:29:49.755Z,16.1
2019-01-28T07:30:51.369Z,16.3
2019-01-28T07:31:52.939Z,16.4
2019-01-28T07:32:54.488Z,16.5
2019-01-28T07:33:56.033Z,16.4
2019-01-28T07:34:57.890Z,16.7
2019-01-28T07:35:59.425Z,16.6
2019-01-28T07:37:03.262Z,16.7
2019-01-28T07:38:04.759Z,16.8
2019-01-28T07:39:06.339Z,16.9
2019-01-28T07:40:07.948Z,16.9
2019-01-28T07:41:09.493Z,17.1
2019-01-28T07:42:13.703Z,17.1
2019-01-28T07:43:15.334Z,17.1
2019-01-28T07:44:16.879Z,17.1
2019-01-28T07:45:18.400Z,17
2019-01-28T07:46:19.934Z,17.1
2019-01-28T07:47:21.410Z,17
2019-01-28T07:48:25.550Z,17
2019-01-28T07:49:27.044Z,17.2
2019-01-28T07:50:28.695Z,17.2
2019-01-28T07:51:32.139Z,17.4
2019-01-28T07:52:34.724Z,17.4
2019-01-28T07:53:37.716Z,17.4
2019-01-28T07:54:40.373Z,17.3
2019-01-28T07:55:42.000Z,17.2
2019-01-28T07:56:43.599Z,17.2
2019-01-28T07:57:45.146Z,17.2
2019-01-28T07:58:46.982Z,17.3
2019-01-28T07:59:48.958Z,17.4
2019-01-28T08:00:50.520Z,17.4
2019-01-28T08:01:51.993Z,17.3
2019-01-28T08:02:53.463Z,17.4
2019-01-28T08:03:54.986Z,17.4
2019-01-28T08:05:00.839Z,17.4
2019-01-28T08:06:02.496Z,17.4
2019-01-28T08:07:06.252Z,17.4
2019-01-28T08:08:07.841Z,17.3
2019-01-28T08:09:09.480Z,17.3
2019-01-28T08:10:11.082Z,17.3
2019-01-28T08:11:12.562Z,17.3
2019-01-28T08:12:14.035Z,17.2
2019-01-28T08:13:15.590Z,17.2
2019-01-28T08:14:17.021Z,17.3
2019-01-28T08:15:18.472Z,17.2
2019-01-28T08:16:20.023Z,17.2
2019-01-28T08:17:21.474Z,17.2
2019-01-28T08:18:24.196Z,17.1
2019-01-28T08:19:25.730Z,17
2019-01-28T08:20:27.261Z,16.9
2019-01-28T08:21:28.784Z,16.9
2019-01-28T08:22:30.248Z,16.8
2019-01-28T08:23:31.746Z,16.8
2019-01-28T08:24:33.206Z,16.8
2019-01-28T08:25:35.734Z,16.8
2019-01-28T08:26:37.275Z,16.8
2019-01-28T08:27:38.750Z,16.7
2019-01-28T08:28:42.350Z,16.7
2019-01-28T08:29:43.917Z,16.6
2019-01-28T08:30:45.520Z,16.6
2019-01-28T08:31:47.107Z,16.6
2019-01-28T08:32:48.580Z,16.6
2019-01-28T08:33:50.700Z,16.6
2019-01-28T08:34:53.159Z,16.5
2019-01-28T08:35:56.882Z,16.5
2019-01-28T08:36:58.401Z,16.5
2019-01-28T08:37:59.888Z,16.5
2019-01-28T08:39:01.656Z,16.6
2019-01-28T08:40:03.128Z,16.6
2019-01-28T08:41:04.586Z,16.6
2019-01-28T08:42:06.142Z,16.6
2019-01-28T08:43:07.834Z,16.6
2019-01-28T08:44:09.299Z,16.5
2019-01-28T08:45:18.500Z,16.6
2019-01-28T08:46:20.180Z,16.5
2019-01-28T08:47:21.797Z,16.5
2019-01-28T08:48:25.069Z,16.5
2019-01-28T08:49:29.309Z,16.5
2019-01-28T08:50:30.966Z,16.5
2019-01-28T08:51:32.529Z,16.5
2019-01-28T08:52:34.095Z,16.5
2019-01-28T08:53:35.910Z,16.4
2019-01-28T08:54:37.749Z,16.5
2019-01-28T08:55:40.664Z,16.4
2019-01-28T08:56:45.380Z,16.3
2019-01-28T08:57:49.426Z,16.4
2019-01-28T08:58:51.081Z,16.5
2019-01-28T08:59:52.633Z,16.5
2019-01-28T09:00:54.425Z,16.5
2019-01-28T09:01:55.870Z,16.5
2019-01-28T09:02:57.862Z,16.5
2019-01-28T09:03:59.410Z,16.5
2019-01-28T09:05:07.638Z,16.5
2019-01-28T09:06:09.755Z,16.5
2019-01-28T09:07:11.507Z,16.5
2019-01-28T09:08:14.086Z,16.4
2019-01-28T09:09:15.528Z,16.4
2019-01-28T09:10:17.019Z,16.4
2019-01-28T09:11:19.020Z,16.5
2019-01-28T09:12:20.548Z,16.5
2019-01-28T09:13:22.145Z,16.4
2019-01-28T09:14:25.234Z,16.5
2019-01-28T09:15:26.829Z,16.5
2019-01-28T09:16:30.721Z,16.5
2019-01-28T09:17:32.419Z,16.5
2019-01-28T09:18:34.673Z,16.5
2019-01-28T09:19:36.134Z,16.5
2019-01-28T09:20:37.703Z,16.5
2019-01-28T09:21:44.029Z,16.5
2019-01-28T09:22:46.392Z,16.5
2019-01-28T09:23:48.491Z,16.4
2019-01-28T09:24:50.122Z,16.4
2019-01-28T09:25:51.881Z,16.3
2019-01-28T09:26:53.677Z,16.3
2019-01-28T09:27:55.417Z,16.4
2019-01-28T09:28:59.769Z,16.5
2019-01-28T09:30:01.319Z,16.5
2019-01-28T09:31:03.165Z,16.7
2019-01-28T09:32:04.706Z,16.7
2019-01-28T09:33:06.273Z,16.8
2019-01-28T09:34:07.899Z,16.9
2019-01-28T09:35:09.637Z,17
2019-01-28T09:36:13.735Z,17.1
2019-01-28T09:37:15.235Z,17.4
2019-01-28T09:38:16.682Z,17.4
2019-01-28T09:39:18.283Z,17.4
2019-01-28T09:40:19.827Z,17.4
2019-01-28T09:41:21.676Z,17.4
2019-01-28T09:42:23.317Z,17.4
2019-01-28T09:43:32.338Z,17.4
2019-01-28T09:44:33.877Z,17.5
2019-01-28T09:45:35.829Z,17.6
2019-01-28T09:46:37.468Z,17.8
2019-01-28T09:47:39.528Z,17.7
2019-01-28T09:48:43.766Z,17.7
2019-01-28T09:49:49.388Z,17.7
2019-01-28T09:50:52.813Z,17.7
2019-01-28T09:51:58.707Z,17.7
2019-01-28T09:53:02.265Z,17.8
2019-01-28T09:54:05.286Z,17.9
2019-01-28T09:55:08.871Z,17.9
2019-01-28T09:56:10.943Z,17.9
2019-01-28T09:57:13.215Z,17.9
2019-01-28T09:58:15.434Z,17.8
2019-01-28T09:59:21.144Z,17.8
2019-01-28T10:00:22.653Z,17.8
2019-01-28T10:01:25.026Z,17.7
2019-01-28T10:02:27.136Z,17.8
2019-01-28T10:03:29.270Z,17.7
2019-01-28T10:04:30.904Z,17.6
2019-01-28T10:05:32.413Z,17.6
2019-01-28T10:06:34.650Z,17.6
2019-01-28T10:07:36.509Z,17.7
2019-01-28T10:08:38.861Z,17.7
2019-01-28T10:09:44.629Z,17.7
2019-01-28T10:10:50.702Z,17.8
2019-01-28T10:11:55.044Z,17.8
2019-01-28T10:12:57.953Z,17.9
2019-01-28T10:14:01.120Z,18
2019-01-28T10:15:04.068Z,18
2019-01-28T10:16:07.882Z,18.1
2019-01-28T10:17:11.864Z,18.1
2019-01-28T10:18:15.563Z,18.1
2019-01-28T10:19:18.347Z,18
2019-01-28T10:20:21.430Z,18
2019-01-28T10:21:26.182Z,18.1
2019-01-28T10:22:31.874Z,18.1
2019-01-28T10:23:39.271Z,18.1
2019-01-28T10:24:40.799Z,18
2019-01-28T10:25:42.369Z,18.1
2019-01-28T10:26:48.088Z,18
2019-01-28T10:27:50.144Z,17.9
2019-01-28T10:28:52.698Z,17.9
2019-01-28T10:29:55.682Z,17.9
2019-01-28T10:31:00.453Z,17.9
2019-01-28T10:32:03.498Z,17.8
2019-01-28T10:33:05.290Z,17.8
2019-01-28T10:34:11.762Z,17.8
2019-01-28T10:35:16.397Z,17.7
2019-01-28T10:36:22.670Z,17.7
2019-01-28T10:37:26.370Z,17.8
2019-01-28T10:38:29.261Z,17.8
2019-01-28T10:39:31.588Z,17.8
2019-01-28T10:40:33.298Z,17.8
2019-01-28T10:41:34.786Z,17.7
2019-01-28T10:42:36.576Z,17.7
2019-01-28T10:43:38.466Z,17.7
2019-01-28T10:44:40.443Z,17.8
2019-01-28T10:45:42.347Z,17.8
2019-01-28T10:46:44.210Z,17.7
2019-01-28T10:47:46.792Z,17.7
2019-01-28T10:48:49.623Z,17.8
2019-01-28T10:49:56.114Z,17.8
2019-01-28T10:50:59.543Z,17.7
2019-01-28T10:52:03.673Z,17.7
2019-01-28T10:53:05.851Z,17.6
2019-01-28T10:54:07.370Z,17.7
2019-01-28T10:55:08.846Z,17.7
2019-01-28T10:56:10.490Z,17.7
2019-01-28T10:57:12.240Z,17.6
2019-01-28T10:58:14.419Z,17.6
2019-01-28T10:59:18.351Z,17.5
2019-01-28T11:00:22.323Z,17.6
2019-01-28T11:01:24.333Z,17.5
2019-01-28T11:02:30.080Z,17.5
2019-01-28T11:03:32.858Z,17.5
2019-01-28T11:04:39.075Z,17.5
2019-01-28T11:05:40.725Z,17.4
2019-01-28T11:06:42.154Z,17.4
2019-01-28T11:07:44.277Z,17.5
2019-01-28T11:08:53.453Z,17.4
2019-01-28T11:09:55.837Z,17.4
2019-01-28T11:10:58.814Z,17.4
2019-01-28T11:12:00.354Z,17.3
2019-01-28T11:13:05.028Z,17.4
2019-01-28T11:14:08.756Z,17.4
2019-01-28T11:15:19.869Z,17.3
2019-01-28T11:16:26.125Z,17.4
2019-01-28T11:17:30.269Z,17.4
2019-01-28T11:18:45.972Z,17.4
2019-01-28T11:19:50.581Z,17.4
2019-01-28T11:21:00.554Z,17.3
2019-01-28T11:22:03.664Z,17.3
2019-01-28T11:23:06.432Z,17.3
2019-01-28T11:24:09.449Z,17.3
2019-01-28T11:25:11.993Z,17.3
2019-01-28T11:26:17.579Z,17.3
2019-01-28T11:27:22.572Z,17.3
2019-01-28T11:33:54.943Z,17.3
2019-01-28T11:34:57.682Z,17.3
2019-01-28T11:36:04.955Z,17.3
2019-01-28T11:37:06.962Z,17.3
2019-01-28T11:38:10.664Z,17.4
2019-01-28T11:39:12.363Z,17.4
2019-01-28T11:40:13.947Z,17.4
2019-01-28T11:41:26.232Z,17.4
2019-01-28T11:42:27.875Z,17.4
2019-01-28T11:43:30.284Z,17.4
2019-01-28T11:44:31.791Z,17.3
2019-01-28T11:45:33.868Z,17.3
2019-01-28T11:46:35.628Z,17.4
2019-01-28T11:47:39.914Z,17.3
2019-01-28T11:48:41.652Z,17.4
2019-01-28T11:49:45.627Z,17.4
2019-01-28T11:50:55.614Z,17.4
2019-01-28T11:51:57.349Z,17.4
2019-01-28T11:52:58.836Z,17.4
2019-01-28T11:54:00.307Z,17.4
2019-01-28T11:55:02.267Z,17.4
2019-01-28T11:56:04.424Z,17.4
2019-01-28T11:57:08.159Z,17.4
2019-01-28T11:58:10.119Z,17.3
2019-01-28T11:59:11.659Z,17.4
2019-01-28T12:00:13.216Z,17.5
2019-01-28T12:01:17.191Z,17.6
2019-01-28T12:02:18.643Z,17.7
2019-01-28T12:03:20.647Z,17.6
2019-01-28T12:04:22.256Z,17.7
2019-01-28T12:05:23.839Z,17.8
2019-01-28T12:06:25.309Z,17.9
2019-01-28T12:07:27.061Z,17.9
2019-01-28T12:08:28.719Z,17.9
2019-01-28T12:09:30.669Z,18
2019-01-28T12:10:33.123Z,18.2
2019-01-28T12:11:35.581Z,18.3
2019-01-28T12:12:37.058Z,18.3
2019-01-28T12:13:40.046Z,18.4
2019-01-28T12:14:41.560Z,18.4
2019-01-28T12:15:43.506Z,18.4
2019-01-28T12:16:47.228Z,18.5
2019-01-28T12:17:51.218Z,18.6
2019-01-28T12:18:53.272Z,18.6
2019-01-28T12:19:54.737Z,18.6
2019-01-28T12:20:56.222Z,18.6
2019-01-28T12:22:01.398Z,18.7
2019-01-28T12:23:02.857Z,18.6
2019-01-28T12:24:04.348Z,18.6
2019-01-28T12:25:05.806Z,18.6
2019-01-28T12:26:08.416Z,18.7
2019-01-28T12:27:09.876Z,18.8
2019-01-28T12:28:11.452Z,18.9
2019-01-28T12:29:15.991Z,18.9
2019-01-28T12:30:17.435Z,18.8
2019-01-28T12:31:18.954Z,18.9
2019-01-28T12:32:20.587Z,18.7
2019-01-28T12:33:22.446Z,18.7
2019-01-28T12:34:26.440Z,18.6
2019-01-28T12:35:27.994Z,18.6
2019-01-28T12:36:29.989Z,18.6
2019-01-28T12:37:31.577Z,18.6
2019-01-28T12:38:33.088Z,18.6
2019-01-28T12:39:39.790Z,18.7
2019-01-28T12:40:42.444Z,18.7
2019-01-28T12:41:43.965Z,18.6
2019-01-28T12:42:45.547Z,18.6
2019-01-28T12:43:47.185Z,18.5
2019-01-28T12:44:49.719Z,18.5
2019-01-28T12:45:51.196Z,18.5
2019-01-28T12:46:52.698Z,18.5
2019-01-28T12:47:54.279Z,18.5
2019-01-28T12:48:56.642Z,18.4
2019-01-28T12:49:58.180Z,18.4
2019-01-28T12:51:00.108Z,18.4
2019-01-28T12:52:01.642Z,18.3
2019-01-28T12:53:03.498Z,18.3
2019-01-28T12:54:07.611Z,18.3
2019-01-28T12:55:09.282Z,18.2
2019-01-28T12:56:10.924Z,18.2
2019-01-28T12:57:12.689Z,18.3
2019-01-28T12:58:14.218Z,18.3
2019-01-28T12:59:15.747Z,18.2
2019-01-28T13:00:19.922Z,18.2
2019-01-28T13:01:24.092Z,18.1
2019-01-28T13:02:25.809Z,18.1
2019-01-28T13:03:38.725Z,18.2
2019-01-28T13:04:43.926Z,18.2
2019-01-28T13:05:48.045Z,18.1
2019-01-28T13:06:49.810Z,18
2019-01-28T13:07:54.273Z,18
2019-01-28T13:08:56.434Z,18
2019-01-28T13:10:01.274Z,18
2019-01-28T13:11:03.652Z,18
2019-01-28T13:12:07.427Z,18
2019-01-28T13:13:10.607Z,18
2019-01-28T13:14:12.942Z,18
2019-01-28T13:15:14.593Z,18
2019-01-28T13:16:16.155Z,17.9
2019-01-28T13:17:18.057Z,17.9
2019-01-28T13:18:21.320Z,17.8
2019-01-28T13:19:29.833Z,17.9
2019-01-28T13:20:34.208Z,17.7
2019-01-28T13:21:35.973Z,17.7
2019-01-28T13:22:44.752Z,17.7
2019-01-28T13:23:48.155Z,17.8
2019-01-28T13:24:51.225Z,17.8
2019-01-28T13:25:53.117Z,17.7
2019-01-28T13:26:55.425Z,17.7
2019-01-28T13:27:57.232Z,17.7
2019-01-28T13:29:01.390Z,17.7
2019-01-28T13:30:05.116Z,17.7
2019-01-28T13:31:07.371Z,17.7
2019-01-28T13:32:09.592Z,17.6
2019-01-28T13:33:15.191Z,17.7
2019-01-28T13:34:17.342Z,17.6
2019-01-28T13:35:19.601Z,17.6
2019-01-28T13:36:21.278Z,17.6
2019-01-28T13:37:23.252Z,17.6
2019-01-28T13:38:27.499Z,17.6
2019-01-28T13:39:39.239Z,17.6
2019-01-28T13:40:41.284Z,17.6
2019-01-28T13:41:43.839Z,17.6
2019-01-28T13:42:48.593Z,17.6
2019-01-28T13:43:51.135Z,17.6
2019-01-28T13:44:56.852Z,17.7
2019-01-28T13:46:00.561Z,17.6
2019-01-28T13:47:03.997Z,17.5
2019-01-28T13:48:14.823Z,17.6
2019-01-28T13:49:17.644Z,17.6
2019-01-28T13:50:23.440Z,17.6
2019-01-28T13:51:28.461Z,17.6
2019-01-28T13:52:33.934Z,17.6
2019-01-28T13:53:36.373Z,17.7
2019-01-28T13:54:38.464Z,17.6
2019-01-28T13:55:46.021Z,17.6
2019-01-28T13:56:51.518Z,17.6
2019-01-28T13:57:54.455Z,17.7
2019-01-28T13:58:57.384Z,17.8
2019-01-28T14:00:09.991Z,17.7
2019-01-28T14:01:13.279Z,17.7
2019-01-28T14:02:14.865Z,17.7
2019-01-28T14:03:18.526Z,17.7
2019-01-28T14:04:29.369Z,17.7
2019-01-28T14:05:32.156Z,17.7
2019-01-28T14:06:35.060Z,17.7
2019-01-28T14:07:36.515Z,17.7